My Meet Scores
Maya Rubin, Chicago Park Dist - MyMeetScores.com
Top100 | Top Teams | Upcoming Meets | Completed Meets | Latest | Add Scores | Help| Support | Bookmark and Share

Maya Rubin, Chicago Park Dist
Personal Bests
LevelVault BarsBeamFloorAA
38.9258.775 8.5008.87534.475
48.7759.450 9.2009.10036.025
69.3008.800 9.1759.27535.950
79.3258.650 9.2259.25036.200
Meet Scores
Date Meet Team Session Level Division Vault Bars Beam Floor AA
2018-04-20 2018 Region 5 Levels 7/8 Championships Chicago Park Dist 07A 7 Jr D1 9.325 16T 8.500 26T 9.225 21T 9.150 31T 36.200 27
2018-03-23 Illinois Level 7 & 8 State Competition Chicago Park Dist 07 7 Jr A 9.100 19T 8.500 21T 8.600 25T 8.900 21T 35.100 24
2018-02-08 Hal's Harley-Davidson Invite Womens Chicago Park Dist O03 7 12 a 8.875 5 0.000 7 0.000 7 8.875 4T 17.750 7
2017-12-15 2017 Aspire Classic Chicago Park Dist 4 7 Younger 9.225 12T 8.650 11T 8.625 15 9.250 7T 35.750 9
2017-12-01 Ultimate Wish Classic Chicago Park Dist 3 7 JR2 9.075 10T 8.500 11 8.225 11 9.200 8 35.000 11
2017-03-23 2017 Illinois Level 6, 7 State Championship Chicago Park Dist 7 6 Ch D 9.300 10T 8.750 22T 8.675 30 9.225 23T 35.950 24
2017-02-24 Kinetic Classic Chicago Park Dist 9 6 All Ages 8.600 44 8.575 41T 8.700 46T 9.275 22T 35.150 41
2017-02-09 Hal's Harley-Davidson Invite Chicago Park Dist S01 6 11 yrs. 9.025 8 8.050 11 8.500 9 9.200 7 34.775 9
2017-01-27 Circle Of Stars Gymnastics Invitational Chicago Park Dist C8 6 Jr B 9.200 1 8.750 3 8.725 5 8.975 5 35.650 4
2017-01-13 St Jude Benefit Meet Chicago Park Dist 1B 6 Jr A 8.750 13 8.400 11T 9.025 6T 8.850 13 35.025 12
2016-12-16 2016 Aspire Classic Chicago Park Dist 3 6 Younger 9.000 10 8.800 13 9.175 6 8.900 12T 35.875 9
2016-12-02 Ultimate Wish Classic Chicago Park Dist 1 6 Junior 8.750 9 8.050 13 8.300 14 8.725 14 33.825 15
2016-03-10 2016 Illinois Level 4 State Meet Chicago Park Dist All 4 Youth-E 8.675 14 9.450 6 8.800 18 9.100 10 36.025 12
2016-02-12 IGI Chicago Style Gymnastics Meet Chicago Park Dist 612 4 JrB 8.775 4 8.950 10 9.075 7 9.025 6 35.825 6
2016-01-15 2016 Bravo Classic Chicago Park Dist 6B 4 9yrs 8.550 17 8.775 18 9.100 5 9.025 8* 35.450 13T
2015-12-04 2015 Ultimate Wish Classic Chicago Park Dist 11A 4 All 8.600 20 8.650 29 9.200 7 8.725 27 35.175 15
2015-02-20 Midwest Open 2015 Chicago Park Dist 7A 4 9 8.025 17 7.050 23 8.075 17 8.550 19 31.700 22
2015-02-13 IGI Chicago Style Gymnastics Meet Chicago Park Dist 622 4 9 & younge 8.100 31 6.750 35 8.050 34T 8.600 30T 31.500 35
2014-03-07 Illinois Level 3 State Meet Chicago Park Dist 3 3 Child 8.925 28 8.575 28 8.175 29 8.800 21 34.475 30
2014-02-07 IGI Chicago Style Gymnastics Meet Chicago Park Dist 232 3 8 & Under 8.125 41 8.775 28T 8.500 27T 8.875 24 34.275 32T
2013-12-19 2013 Hawaiian Pineapple Classic Chicago Park Dist B9 3 8 8.650 25T 8.325 16 8.400 6T 8.450 17 33.825 14

www.lazysuits.com